Racecast

Nike Ultimook Race XC Invitational

The Hydrangea Ranch · 3000m · Girls · Middle School · 2016-09-03 · OR

Course difficulty: +0.150

Race-day weather: 56°F · wind 11 mph · humidity 74%

View full meet →

Team scores

Place Team Points 12345 67
1 Liberty (WA) 19 1 2 4 5 7 8 9
2 Washougal (WA) 45 3 6 11 12 13 14 26
3 Newberg (OR) 84 10 15 18 19 22
4 Kraxberger (OR) 108 16 17 21 24 30 31 32
5 Southwest Christian (OR) 123 20 23 25 27 28 29 33

As scored by the meet.

Results

Rating scale ?
Place Athlete Grade School Time Rating Points
1 Grace Varsek 8 Liberty (WA) 1 12:36.2 SR 139.0 1
2 Hailey Sherman 8 Liberty (WA) 2 12:43.2 SR 137.8 2
3 Nina Zweifel 8 Tillamook (OR) 1 12:59.2 SR 135.1
4 Olivia Dinnel 8 Washougal (WA) 1 13:01.5 SR 134.8 3
5 Calista Kerls 8 Liberty (WA) 3 13:14.6 SR 132.7 4
6 Jenna Lukowiak 8 Liberty (WA) 4 13:15.5 SR 132.5 5
7 Katelyn Flolo 7 Cornerstone (MI) 1 13:25.8 SR 130.9
8 Gabby Warta 8 Washougal (WA) 2 13:32.3 SR 129.9 6
9 Bella Distante 8 Liberty (WA) 5 13:42.6 SR 128.4 7
10 Sophia Doumitt 8 Liberty (WA) 6 13:43.2 SR 128.3 8
11 Camryn Mock 8 Liberty (WA) 7 13:44.8 PR 128.1 9
12 Ashley Gillespie 8 Liberty (WA) 8 13:54.7 SR 126.6
13 Sophia Redwine 7 Newberg (OR) 1 14:04.8 PR 125.2 10
14 Emily Kovalenko 7 Liberty (WA) 9 14:10.2 PR 124.4
15 Milan Shirakawa 8 Washougal (WA) 3 14:14 PR 123.9 11
16 Chloe Buzzard 7 Liberty (WA) 10 14:33.9 PR 121.2
17 Alyson Robertson 6 Liberty (WA) 11 14:34.6 PR 121.1
18 Sophia Rubano 6 Liberty (WA) 12 14:51.7 PR 118.9
19 Taylor Robertson 8 Liberty (WA) 13 14:54.3 SR 118.6
20 Sydney George 6 Liberty (WA) 14 14:58.8 PR 118.0
21 Elizabeth Gillespie 8 Liberty (WA) 15 15:03.5 SR 117.4
22 Isabelle Klopman 7 Washougal (WA) 4 15:07.5 PR 116.9 12
23 Meryl Keeler 8 Washougal (WA) 5 15:11.7 SR 116.4 13
24 Sammy Mederos 7 Washougal (WA) 6 15:32.3 PR 114.0 14
25 Acacia Czuk 6 Newberg (OR) 2 15:33.1 PR 113.9 15
26 McKailyn Cole 8 Liberty (WA) 16 15:41.5 SR 112.9
27 Katie McCann 8 Liberty (WA) 17 15:42.1 SR 112.8
28 Jade Palacios 7 Kraxberger (OR) 1 15:54.4 PR 111.5 16
29 Delaney McNett 6 Kraxberger (OR) 2 15:59.3 PR 110.9 17
30 Rebekah Shellman 8 Liberty (WA) 18 16:04.4 SR 110.4
31 Jessica Bode 7 Liberty (WA) 19 16:16 PR 109.1
32 Elle Freund 6 Kelso (WA) 1 16:19.4 PR 108.7
33 Paige Ross 8 Tillamook (OR) 2 16:21 SR 108.6
34 Sivana Dorsey 7 Crow (OR) 1 16:33.6 PR 107.3
35 Susannah Gillespie 6 Liberty (WA) 20 16:39.8 PR 106.6
36 Olivia Lawson 6 Newberg (OR) 3 16:43.5 PR 106.2 18
37 Amelia Merritt 6 Liberty (WA) 21 16:44.8 PR 106.1
38 Claire Faucher 6 Newberg (OR) 4 16:46.3 PR 106.0 19
39 Kayla Morgan 8 Southwest Christian (OR) 1 17:13.1 SR 103.3 20
40 Grace Duffey 6 Liberty (WA) 22 17:16.6 PR 103.0
41 Bethany Ziegler 7 Nestucca Valley (OR) 1 17:17.5 SR 102.9
42 Abby Sanderson 6 Kraxberger (OR) 3 17:18.6 PR 102.8 21
43 Emma Walsh 7 Newberg (OR) 5 17:19.2 SR 102.7 22
44 Shelby Reid 6 Liberty (WA) 23 17:22.9 PR 102.4
45 Natasha Wehrley 8 Nestucca Valley (OR) 2 17:26.9 SR 102.0
46 Katie Javadi 8 Tillamook (OR) 3 17:35.6 SR 101.2
47 Keira Williams 6 Liberty (WA) 24 17:39.1 PR 100.9
48 Leah Wegener 8 Liberty (WA) 25 17:43.6 PR 100.5
49 Audrey Benjamin 6 Liberty (WA) 26 17:50.9 PR 99.8
50 Jaimee Olson - Trinity Lutheran (OR) 1 17:54.7 PR 99.5
51 Lilly Boothe 8 Clatskanie (OR) 1 17:55.2 SR 99.4
52 Karlie Walker 6 Liberty (WA) 27 18:06.6 PR 98.4
53 Ellie Arzie 8 Southwest Christian (OR) 2 18:10.3 SR 98.1 23
54 Brynn Tatom 8 Kraxberger (OR) 4 18:10.6 98.1 24
55 Kailey Beaudoin 6 Liberty (WA) 28 18:13 PR 97.9
56 Sadie Gump 7 Vernonia (OR) 1 18:13.8 SR 97.8
57 Rilla Stubblefield 8 Southwest Christian (OR) 3 18:14.8 SR 97.7 25
58 Mari Walbruch 6 Liberty (WA) 29 18:56 PR 94.3
59 Alliyah Barnes 6 Liberty (WA) 30 18:56.9 PR 94.2
60 Tanalee Newton 7 Washougal (WA) 7 19:03.8 PR 93.7 26
61 Victoria Jensen 7 Liberty (WA) 31 19:06.7 SR 93.5
62 Paige Huth 7 Liberty (WA) 32 19:08.7 SR 93.3
63 Krista Haas 6 Southwest Christian (OR) 4 19:10.2 PR 93.2 27
64 Chloe Frentsos 6 Liberty (WA) 33 19:12.4 PR 93.0
65 Anna Woods 7 Liberty (WA) 34 19:14.6 SR 92.9
66 Sierra Sierra 8 Southwest Christian (OR) 5 19:19.9 SR 92.5 28
67 Elle Campbell 7 Cornerstone (MI) 2 19:21.3 PR 92.3
68 Sydney Edgerton 6 Cornerstone (MI) 3 19:21.7 PR 92.3
69 Avery Copa 7 Liberty (WA) 35 19:24.3 PR 92.1
70 Marlene Brossia 7 Liberty (WA) 36 19:32.1 PR 91.5
71 Daisy Gooch 6 Liberty (WA) 37 19:32.8 PR 91.5
72 Annika Stupfel 6 Liberty (WA) 38 19:33.7 PR 91.4
73 Quinn Metzger 7 Triangle Lake (OR) 1 19:34.3 PR 91.4
74 Laurel Quinn 7 Liberty (WA) 39 19:36.7 SR 91.2
75 Karli Christianson 6 Southwest Christian (OR) 6 19:56.4 PR 89.7 29
76 Sophie Black 6 Liberty (WA) 40 19:56.8 PR 89.7
77 Brooklynn Tatom 8 Kraxberger (OR) 5 19:58.8 89.6 30
78 Anna Cormarnitchi 6 Liberty (WA) 41 20:05.9 PR 89.0
79 Raigan Hammack 6 Liberty (WA) 42 20:10.5 PR 88.7
80 Lisette Castañeda 8 Kraxberger (OR) 6 20:12.2 PR 88.6 31
81 Abigail Breslow 8 Kraxberger (OR) 7 20:12.8 88.6 32
82 Kiara Hansen 6 Liberty (WA) 43 20:22.7 PR 87.9
83 Nicole Belcher 8 Liberty (WA) 44 20:42.7 SR 86.5
84 Lauren Gross 6 Liberty (WA) 45 20:44.7 PR 86.4
85 Alex Breslow 6 Kraxberger (OR) 8 20:50.5 86.0
86 Lili Shore 6 Liberty (WA) 46 20:58.3 PR 85.5
87 Mia Kankelberg 8 Liberty (WA) 47 21:03.7 SR 85.1
88 Nicole Adler 6 Liberty (WA) 48 21:32.4 PR 83.3
89 Hailey Fagan 6 Liberty (WA) 49 21:35.8 PR 83.1
90 Hannah Watson 6 Liberty (WA) 50 22:29.2 PR 79.9
91 Cadence Jones 6 Liberty (WA) 51 22:32.6 PR 79.7
92 Ella Zimmerman 6 Liberty (WA) 52 22:59.4 PR 78.2
93 Ella Asbury 7 Liberty (WA) 53 23:33.1 SR 76.4
94 Jacqueline Brizuela 7 Liberty (WA) 54 23:36 SR 76.2
95 Maddie Mazemke 7 Liberty (WA) 55 23:36.5 SR 76.2
96 Shereena Cook 6 Southwest Christian (OR) 7 23:36.6 PR 76.2 33
Something wrong on this page? Report it →